Terminal Aerodrome Forecast
Issued by NWS

Home | Current Version | Previous Version | Graphics & Text | Print | Product List | Glossary On
Versions: 1 2 3 4 5 6 7 8 9 10 11 12
000
FTUS43 KTOP 201740
TAFFOE
TAF
KFOE 201740Z 2018/2118 18017G25KT P6SM FEW030
     FM210300 17017G26KT P6SM SCT030 WS020/19060KT
     FM210700 18016G26KT P6SM BKN012 WS020/19060KT
     FM211300 18015G27KT P6SM BKN012=

USA.gov is the U.S. government's official web portal to all federal, state and local government web resources and services.